Latest Coastal Weather Observations for Horn Island

IDQ60701

Issued at 2:15 am EST Thursday 17 April 2014 (issued every 10 minutes, with the page automatically refreshed every 10 minutes)

About coastal observations | Map of coastal stations | Coastal observations for QLD | Marine services | Other Formats
Station Details ID: 027058 Name: HORN ISLAND Lat: -10.58 Lon: 142.29 Height: 4.0 m
Data from the previous 72 hours. | See also: Recent months at Horn Island
Date/Time
EST
Temp

°C
Wind Pressure Rain
since 9am
mm
Weather Cloud Vis
km
Sea
Height
m
Swell
Dir
 
Speed
knots
Gust
knots
hPa Trend Height
m
Period
s
Dir
17/02:00am 27.0 ESE 11 16 1009.4 - 0.0 - Partly cloudy 10 - - - -
17/01:56am 27.0 ESE 10 14 1009.4 - 0.0 - Partly cloudy 10 - - - -
17/01:30am 27.1 ESE 11 16 1009.0 - 0.0 - Partly cloudy 10 - - - -
17/01:00am 26.9 ESE 10 14 1009.3 - 0.0 - - 10 - - - -
17/12:30am 26.8 ESE 10 14 1009.9 - 0.0 - Partly cloudy 10 - - - -
17/12:00am 26.8 ESE 10 13 1010.5 - 0.0 - Mostly clear 10 - - - -
 
Date/Time
EST
Temp

°C
Wind Pressure Rain
since 9am
mm
Weather Cloud Vis
km
Sea
Height
m
Swell
Dir
 
Speed
knots
Gust
knots
hPa Trend Height
m
Period
s
Dir
16/11:30pm 27.2 SE 7 10 1010.3 - 0.0 - Partly cloudy 10 - - - -
16/11:00pm 27.3 SE 7 10 1010.4 - 0.0 - - 10 - - - -
16/10:30pm 27.1 SE 8 11 1010.4 - 0.0 - - 10 - - - -
16/10:00pm 27.1 ESE 6 8 1010.6 - 0.0 - - 10 - - - -
16/09:30pm 27.1 SE 6 8 1010.5 - 0.0 - Partly cloudy 10 - - - -
16/09:00pm 27.2 SE 6 9 1010.5 - 0.0 - - 10 - - - -
16/08:30pm 27.4 ESE 8 11 1010.1 - 0.0 - Partly cloudy 10 - - - -
16/08:00pm 27.4 SE 8 11 1009.8 - 0.0 - Partly cloudy 10 - - - -
16/07:30pm 27.5 ESE 9 12 1009.4 - 0.0 - - 10 - - - -
16/07:00pm 27.7 ESE 9 13 1008.9 - 0.0 - Partly cloudy 10 - - - -
16/06:30pm 28.1 E 8 11 1008.3 - 0.0 - Partly cloudy 10 - - - -
16/06:00pm 28.4 E 9 11 1008.1 - 0.0 - Mostly clear 10 - - - -
16/05:30pm 28.9 E 10 14 1007.8 - 0.0 - - 10 - - - -
16/05:00pm 29.1 E 11 14 1007.6 - 0.0 - Partly cloudy 10 - - - -
16/04:30pm 29.3 E 10 13 1007.5 - 0.0 - Partly cloudy 10 - - - -
16/04:00pm 29.4 E 10 13 1007.4 - 0.0 - Partly cloudy 10 - - - -
16/03:30pm 29.4 ENE 10 13 1007.7 - 0.0 - Partly cloudy 10 - - - -
16/03:00pm 29.7 E 11 15 1007.8 - 0.0 - Partly cloudy 10 - - - -
16/02:30pm 29.7 E 10 15 1008.2 - 0.0 - Partly cloudy 10 - - - -
16/02:00pm 29.3 ENE 11 15 1008.4 - 0.0 - Partly cloudy 10 - - - -
16/01:30pm 30.1 E 13 16 1008.8 - 0.0 - Partly cloudy 10 - - - -
16/01:00pm 29.8 E 12 16 1009.2 - 0.0 - Partly cloudy 10 - - - -
16/12:30pm 29.7 E 12 16 1009.8 - 0.0 - Partly cloudy 10 - - - -
16/12:00pm 29.5 E 12 16 1010.1 - 0.0 - Mostly clear 10 - - - -
16/11:30am 29.8 ENE 11 16 1010.5 - 0.0 - Partly cloudy 10 - - - -
16/11:00am 29.4 ENE 11 15 1010.9 - 0.0 - Partly cloudy 10 - - - -
16/10:30am 29.5 ENE 12 15 1011.2 - 0.0 - Partly cloudy 10 - - - -
16/10:00am 29.5 ENE 12 16 1011.2 - 0.0 - Partly cloudy 10 - - - -
16/09:30am 28.9 E 10 13 1011.1 - 0.0 - Partly cloudy 10 - - - -
16/09:00am 28.6 ESE 8 11 1010.9 - 24.4 - Mostly clear 10 - - - -
16/08:30am 28.6 ESE 8 11 1010.5 - 24.4 - Partly cloudy 10 - - - -
16/08:00am 28.3 E 9 12 1010.2 - 24.4 - Partly cloudy 10 - - - -
16/07:30am 27.7 ESE 5 7 1010.1 - 24.4 - - 10 - - - -
16/07:00am 25.9 ESE 5 7 1010.0 - 24.4 - - 10 - - - -
16/06:30am 25.8 ESE 6 8 1009.7 - 24.4 - Partly cloudy 10 - - - -
16/06:00am 26.1 SE 6 9 1009.5 - 24.4 - Cloudy 10 - - - -
16/05:30am 25.1 CALM 0 0 1009.5 - 24.4 - Partly cloudy 10 - - - -
16/05:00am 25.1 CALM 0 0 1009.5 - 24.4 - Partly cloudy 10 - - - -
16/04:30am 25.3 CALM 0 0 1009.5 - 24.4 - - 10 - - - -
16/04:00am 25.6 CALM 0 0 1009.4 - 24.4 - Partly cloudy 10 - - - -
16/03:30am 25.7 CALM 0 0 1009.3 - 24.4 - Partly cloudy 10 - - - -
16/03:00am 26.4 E 3 5 1009.2 - 24.4 - - 10 - - - -
16/02:30am 26.7 E 6 9 1009.1 - 24.4 - Partly cloudy 10 - - - -
16/02:00am 26.8 E 7 9 1009.4 - 24.4 - Partly cloudy 10 - - - -
16/01:30am 26.8 ENE 7 10 1010.0 - 24.4 - Partly cloudy 10 - - - -
16/01:00am 26.5 E 4 7 1010.4 - 24.4 - Partly cloudy 10 - - - -
16/12:30am 26.3 E 4 5 1011.0 - 24.4 - Partly cloudy 10 - - - -
16/12:00am 26.2 E 5 6 1011.1 - 24.4 - - 10 - - - -
 
Date/Time
EST
Temp

°C
Wind Pressure Rain
since 9am
mm
Weather Cloud Vis
km
Sea
Height
m
Swell
Dir
 
Speed
knots
Gust
knots
hPa Trend Height
m
Period
s
Dir
15/11:30pm 25.8 ENE 5 7 1011.3 - 24.4 - - 10 - - - -
15/11:00pm 25.4 CALM 0 0 1011.1 - 24.4 - - 10 - - - -
15/10:30pm 25.5 SSW 3 4 1011.2 - 24.4 - - 10 - - - -
15/10:00pm 25.7 CALM 0 0 1011.1 - 24.4 - - 10 - - - -
15/09:30pm 25.6 SSE 1 3 1011.3 - 24.4 - - 10 - - - -
15/09:00pm 25.6 CALM 0 0 1011.1 - 24.4 - - 10 - - - -
15/08:30pm 25.6 CALM 0 0 1010.6 - 24.4 - - 10 - - - -
15/08:00pm 25.7 CALM 0 0 1010.0 - 24.4 - - 10 - - - -
15/07:30pm 25.8 CALM 0 0 1009.6 - 24.4 - - 10 - - - -
15/07:00pm 26.2 CALM 0 0 1009.1 - 24.4 - - 10 - - - -
15/06:30pm 26.3 SSW 4 5 1008.5 - 24.4 - - 10 - - - -
15/06:00pm 26.8 SSE 3 4 1008.5 - 24.4 - - 10 - - - -
15/05:30pm 26.9 S 4 5 1008.2 - 24.4 - - 10 - - - -
15/05:00pm 27.3 SSE 5 6 1007.8 - 24.4 - - 10 - - - -
15/04:30pm 27.6 E 4 5 1007.6 - 24.4 - - 10 - - - -
15/04:00pm 27.4 NNW 4 5 1007.5 - 24.4 - - 10 - - - -
15/03:30pm 27.1 NNW 4 5 1007.6 - 24.4 - - 10 - - - -
15/03:00pm 27.4 NNW 3 4 1007.9 - 24.4 - - 10 - - - -
15/02:30pm 26.4 N 3 5 1008.8 - 24.4 - - 10 - - - -
15/02:00pm 26.1 NW 3 4 1009.6 - 24.2 - Partly cloudy 10 - - - -
15/01:30pm 25.6 N 3 4 1010.2 - 24.0 - Partly cloudy 10 - - - -
15/01:00pm 25.2 ESE 2 3 1010.7 - 23.6 - Partly cloudy 10 - - - -
15/12:30pm 24.6 CALM 0 0 1011.7 - 23.2 - Partly cloudy 10 - - - -
15/12:14pm 24.4 CALM 0 0 1012.0 - 23.2 - Partly cloudy 9 - - - -
15/12:00pm 24.0 ESE 2 4 1012.2 - 22.6 - Cloudy 5 - - - -
15/11:30am 23.9 ESE 2 4 1012.7 - 20.2 - Cloudy 3 - - - -
15/11:00am 23.7 ESE 1 4 1013.1 - 17.6 - Partly cloudy 2 - - - -
15/10:30am 23.6 S 5 7 1013.1 - 14.6 - Partly cloudy 3 - - - -
15/10:00am 24.3 ESE 4 8 1013.2 - 5.0 - Partly cloudy 4 - - - -
15/09:30am 24.4 CALM 0 0 1013.2 - 2.8 - Partly cloudy 4 - - - -
15/09:00am 24.3 CALM 0 0 1012.8 - 4.2 - Cloudy 4 - - - -
15/08:48am 24.3 WSW 3 6 1012.6 - 3.0 - Partly cloudy 5 - - - -
15/08:30am 24.3 SW 5 9 1012.1 - 2.2 - Partly cloudy 10 - - - -
15/08:00am 25.0 SW 8 13 1011.5 - 2.2 - Partly cloudy 10 - - - -
15/07:48am 25.1 SW 8 14 1011.3 - 2.2 - Partly cloudy 10 - - - -
15/07:30am 25.0 WSW 5 6 1010.9 - 2.2 - Partly cloudy 10 - - - -
15/07:00am 25.4 NW 9 13 1010.5 - 2.2 - Partly cloudy 9 - - - -
15/06:38am 25.8 NNW 11 13 1010.3 - 2.2 - Partly cloudy 9 - - - -
15/06:30am 25.7 WNW 7 10 1010.0 - 2.2 - Partly cloudy 7 - - - -
15/06:13am 25.2 SSW 5 8 1009.7 - 1.0 - Partly cloudy 5 - - - -
15/06:00am 25.4 S 8 12 1009.6 - 0.4 - Cloudy 10 - - - -
15/05:57am 25.6 S 9 12 1009.5 - 0.4 - Partly cloudy 10 - - - -
15/05:46am 25.9 E 2 6 1009.6 - 0.2 - Partly cloudy 10 - - - -
15/05:30am 26.4 CALM 0 0 1009.4 - 0.2 - Partly cloudy 10 - - - -
15/05:00am 26.4 CALM 0 0 1009.3 - 0.2 - Partly cloudy 10 - - - -
15/04:30am 26.6 CALM 0 0 1009.0 - 0.2 - Partly cloudy 10 - - - -
15/04:18am 26.5 CALM 0 0 1009.1 - 0.2 - Partly cloudy 10 - - - -
15/04:00am 26.5 CALM 0 0 1009.2 - 0.2 - Partly cloudy 10 - - - -
15/03:59am 26.5 CALM 0 0 1009.2 - 0.2 - Partly cloudy 10 - - - -
15/03:30am 26.2 CALM 0 0 1009.2 - 0.2 - - 10 - - - -
15/03:00am 26.2 CALM 0 0 1009.0 - 0.2 - - 10 - - - -
15/02:30am 26.0 CALM 0 0 1009.0 - 0.2 - - 10 - - - -
15/02:00am 26.1 CALM 0 0 1009.2 - 0.2 - - 10 - - - -
15/01:30am 26.2 CALM 0 0 1009.4 - 0.2 - - 10 - - - -
15/01:00am 26.3 CALM 0 0 1009.5 - 0.2 - - 10 - - - -
15/12:30am 26.5 CALM 0 0 1009.9 - 0.2 - - 10 - - - -
15/12:00am 26.6 S 2 4 1010.2 - 0.2 - - 10 - - - -
 
Date/Time
EST
Temp

°C
Wind Pressure Rain
since 9am
mm
Weather Cloud Vis
km
Sea
Height
m
Swell
Dir
 
Speed
knots
Gust
knots
hPa Trend Height
m
Period
s
Dir
14/11:30pm 26.8 CALM 0 0 1010.3 - 0.2 - - 10 - - - -
14/11:00pm 26.8 CALM 0 0 1010.4 - 0.2 - - 10 - - - -
14/10:30pm 26.8 CALM 0 0 1010.5 - 0.2 - - 10 - - - -
14/10:00pm 26.8 CALM 0 0 1010.2 - 0.2 - - 10 - - - -
14/09:30pm 26.8 CALM 0 0 1010.1 - 0.2 - - 10 - - - -
14/09:00pm 26.9 CALM 0 0 1009.8 - 0.2 - - 10 - - - -
14/08:30pm 27.1 S 4 4 1009.5 - 0.2 - - 10 - - - -
14/08:00pm 27.3 SSW 4 5 1009.0 - 0.2 - - 10 - - - -
14/07:30pm 27.6 WSW 3 4 1008.7 - 0.2 - Partly cloudy 10 - - - -
14/07:00pm 27.7 SW 3 4 1008.3 - 0.2 - - 10 - - - -
14/06:30pm 28.0 W 6 8 1007.8 - 0.2 - Partly cloudy 10 - - - -
14/06:00pm 28.4 W 6 9 1007.5 - 0.2 - - 10 - - - -
14/05:30pm 29.2 W 8 11 1007.2 - 0.2 - - 10 - - - -
14/05:00pm 29.6 W 8 11 1007.2 - 0.2 - Partly cloudy 10 - - - -
14/04:30pm 29.8 WNW 9 13 1007.1 - 0.2 - - 10 - - - -
14/04:00pm 29.7 WNW 9 13 1007.1 - 0.2 - Partly cloudy 10 - - - -
14/03:30pm 30.3 WNW 9 13 1007.1 - 0.2 - Partly cloudy 10 - - - -
14/03:00pm 30.0 NW 10 14 1007.2 - 0.2 - - 10 - - - -
14/02:30pm 30.0 NW 10 14 1007.7 - 0.2 - - 10 - - - -
14/02:00pm 30.1 NW 11 14 1007.9 - 0.2 - Partly cloudy 10 - - - -
14/01:30pm 30.0 NW 11 16 1008.1 - 0.0 - - 10 - - - -
14/01:00pm 30.5 NW 11 16 1008.8 - 0.0 - Partly cloudy 10 - - - -
14/12:30pm 29.2 NW 9 12 1009.4 - 0.0 - Partly cloudy 10 - - - -
14/12:00pm 29.6 NW 9 12 1009.8 - 0.0 - Partly cloudy 10 - - - -
14/11:38am 29.0 NW 7 10 1010.2 - 0.0 - Partly cloudy 10 - - - -
14/11:30am 28.5 WNW 8 11 1010.2 - 0.0 - Partly cloudy 10 - - - -
14/11:11am 28.7 NNW 8 12 1010.5 - 0.0 - Partly cloudy 10 - - - -
14/11:00am 29.0 NNW 9 13 1010.6 - 0.0 - Partly cloudy 10 - - - -
14/10:30am 28.8 NNW 9 13 1010.7 - 0.0 - Partly cloudy 10 - - - -
14/10:00am 28.8 NNW 9 14 1010.8 - 0.0 - Partly cloudy 10 - - - -
14/09:30am 28.3 NNW 8 12 1010.5 - 0.0 - Partly cloudy 10 - - - -
14/09:18am 28.5 NNW 8 11 1010.5 - 0.0 - Partly cloudy 10 - - - -
14/09:03am 27.6 NNW 6 10 1010.4 - 0.0 - Partly cloudy 10 - - - -
14/09:00am 27.5 NW 5 9 1010.4 - 7.0 - Mostly cloudy 10 - - - -
14/08:30am 27.0 NNW 5 11 1010.2 - 3.6 - Partly cloudy 3 - - - -
14/08:29am 27.2 SE 4 11 1010.2 - 2.0 - Partly cloudy 4 - - - -
14/08:28am 27.2 SE 3 11 1010.2 - 0.8 - Partly cloudy 6 - - - -
14/08:00am 26.9 CALM 0 0 1009.8 - 0.0 - Partly cloudy 10 - - - -
14/07:30am 26.4 SSE 2 3 1009.5 - 0.0 - Partly cloudy 10 - - - -
14/07:00am 26.0 CALM 0 0 1009.3 - 0.0 - Partly cloudy 10 - - - -
14/06:30am 26.0 CALM 0 0 1008.8 - 0.0 - Partly cloudy 10 - - - -
14/06:00am 25.8 CALM 0 0 1008.4 - 0.0 - - 10 - - - -
14/05:30am 25.8 CALM 0 0 1008.1 - 0.0 - - 10 - - - -
14/05:00am 25.8 CALM 0 0 1007.7 - 0.0 - - 10 - - - -
14/04:30am 25.7 CALM 0 0 1007.8 - 0.0 - - 10 - - - -
14/04:00am 25.9 CALM 0 0 1007.8 - 0.0 - - 10 - - - -
14/03:30am 26.0 CALM 0 0 1007.8 - 0.0 - - 10 - - - -
14/03:00am 25.9 CALM 0 0 1007.9 - 0.0 - - 10 - - - -
14/02:30am 26.1 CALM 0 0 1007.6 - 0.0 - - 10 - - - -

Other Formats:

Comma delimited format used in spreadsheet applications
http://www.bom.gov.au/fwo/IDQ60701/IDQ60701.94174.axf

JavaScript Object Notation format (JSON) in row-major order
http://www.bom.gov.au/fwo/IDQ60701/IDQ60701.94174.json